createdAt,value
2023-01-11T00:00:37.067Z,13.45
2023-01-11T00:03:05.714Z,13.18
2023-01-11T00:05:37.464Z,8.90
2023-01-11T00:08:05.039Z,13.23
2023-01-11T00:10:33.502Z,15.07
2023-01-11T00:13:01.747Z,17.45
2023-01-11T00:15:28.844Z,15.20
2023-01-11T00:17:56.236Z,15.15
2023-01-11T00:20:23.489Z,17.40
2023-01-11T00:22:50.772Z,14.45
2023-01-11T00:25:18.302Z,11.30
2023-01-11T00:27:47.517Z,12.73
2023-01-11T00:30:14.842Z,13.43
2023-01-11T00:32:42.591Z,12.95
2023-01-11T00:35:09.907Z,15.02
2023-01-11T00:37:36.916Z,10.00
2023-01-11T00:40:04.490Z,9.07
2023-01-11T00:42:49.843Z,9.68
2023-01-11T00:45:35.375Z,8.10
2023-01-11T00:48:06.183Z,6.45
2023-01-11T00:50:36.068Z,9.07
2023-01-11T00:53:03.962Z,6.47
2023-01-11T00:55:34.199Z,6.05
2023-01-11T00:58:02.174Z,8.13
2023-01-11T01:00:29.845Z,4.65
2023-01-11T01:02:57.127Z,5.20
2023-01-11T01:05:24.822Z,5.32
2023-01-11T01:07:51.904Z,6.30
2023-01-11T01:10:20.337Z,4.22
2023-01-11T01:13:06.188Z,8.15
2023-01-11T01:15:34.212Z,3.08
2023-01-11T01:18:01.404Z,5.15
2023-01-11T01:20:28.553Z,6.25
2023-01-11T01:22:55.616Z,5.55
2023-01-11T01:25:22.714Z,3.22
2023-01-11T01:27:49.875Z,5.55
2023-01-11T01:30:17.153Z,5.78
2023-01-11T01:32:44.239Z,7.25
2023-01-11T01:35:11.339Z,8.23
2023-01-11T01:37:38.380Z,4.22
2023-01-11T01:40:06.355Z,5.43
2023-01-11T01:42:33.379Z,6.05
2023-01-11T01:45:25.496Z,4.55
2023-01-11T01:47:59.530Z,7.75
2023-01-11T01:50:55.536Z,3.00
2023-01-11T01:53:28.006Z,5.72
2023-01-11T01:56:01.800Z,5.60
2023-01-11T02:01:21.852Z,4.90
2023-01-11T02:03:49.883Z,10.55
2023-01-11T02:06:16.966Z,9.95
2023-01-11T02:08:48.724Z,10.38
2023-01-11T02:11:32.522Z,6.15
2023-01-11T02:14:03.416Z,8.35
2023-01-11T02:16:30.754Z,9.32
2023-01-11T02:18:58.611Z,13.13
2023-01-11T02:21:40.318Z,8.45
2023-01-11T02:24:10.106Z,7.30
2023-01-11T02:26:44.612Z,7.70
2023-01-11T02:29:33.604Z,7.65
2023-01-11T02:32:37.966Z,4.28
2023-01-11T02:35:19.898Z,5.63
2023-01-11T02:37:56.103Z,3.05
2023-01-11T02:40:37.133Z,4.53
2023-01-11T02:43:47.431Z,4.25
2023-01-11T02:46:33.306Z,5.88
2023-01-11T02:49:12.009Z,3.20
2023-01-11T02:51:43.564Z,5.05
2023-01-11T02:54:12.265Z,3.63
2023-01-11T02:56:46.757Z,4.70
2023-01-11T02:59:19.622Z,3.10
2023-01-11T03:01:48.473Z,4.75
2023-01-11T03:04:27.323Z,3.55
2023-01-11T03:07:11.324Z,6.15
2023-01-11T03:09:56.049Z,4.35
2023-01-11T03:12:52.298Z,5.20
2023-01-11T03:15:44.972Z,4.88
2023-01-11T03:18:17.812Z,3.78
2023-01-11T03:20:55.265Z,3.58
2023-01-11T03:23:32.325Z,6.45
2023-01-11T03:26:29.396Z,4.07
2023-01-11T03:29:21.235Z,4.40
2023-01-11T03:31:48.197Z,4.80
2023-01-11T03:34:33.073Z,5.97
2023-01-11T03:37:26.359Z,5.65
2023-01-11T03:40:03.051Z,6.70
2023-01-11T03:42:32.532Z,7.25
2023-01-11T03:45:01.354Z,10.50
2023-01-11T03:47:30.290Z,10.68
2023-01-11T03:50:05.575Z,6.72
2023-01-11T03:52:37.489Z,6.00
2023-01-11T03:55:08.467Z,5.93
2023-01-11T03:57:43.424Z,5.10
2023-01-11T04:00:11.520Z,5.47
2023-01-11T04:02:42.218Z,5.13
2023-01-11T04:05:11.670Z,5.60
2023-01-11T04:07:38.773Z,3.55
2023-01-11T04:10:06.553Z,7.07
2023-01-11T04:12:33.852Z,6.70
2023-01-11T04:15:03.287Z,18.58
2023-01-11T04:17:30.264Z,17.33
2023-01-11T04:19:57.441Z,11.65
2023-01-11T04:22:24.372Z,11.60
2023-01-11T04:24:51.301Z,9.48
2023-01-11T04:27:18.299Z,10.63
2023-01-11T04:29:45.229Z,7.78
2023-01-11T04:32:12.221Z,7.85
2023-01-11T04:34:39.167Z,8.68
2023-01-11T04:37:06.262Z,8.40
2023-01-11T04:39:33.867Z,8.75
2023-01-11T04:42:18.854Z,9.32
2023-01-11T04:44:48.989Z,12.80
2023-01-11T04:47:17.175Z,10.40
2023-01-11T04:49:44.318Z,13.82
2023-01-11T04:52:12.568Z,8.77
2023-01-11T04:54:39.852Z,7.50
2023-01-11T04:57:08.109Z,4.30
2023-01-11T04:59:35.101Z,5.82
2023-01-11T05:02:02.027Z,4.30
2023-01-11T05:04:29.201Z,6.00
2023-01-11T05:06:56.253Z,5.30
2023-01-11T05:09:23.500Z,4.32
2023-01-11T05:11:50.627Z,2.50
2023-01-11T05:14:18.203Z,3.35
2023-01-11T05:16:45.422Z,3.70
2023-01-11T05:19:13.168Z,2.08
2023-01-11T05:21:42.255Z,1.40
2023-01-11T05:24:13.065Z,3.00
2023-01-11T05:26:42.151Z,2.72
2023-01-11T05:29:16.539Z,0.95
2023-01-11T05:31:43.709Z,2.33
2023-01-11T05:34:13.176Z,1.23
2023-01-11T05:36:41.154Z,2.05
2023-01-11T05:39:08.346Z,4.85
2023-01-11T05:41:35.753Z,1.80
2023-01-11T05:44:21.425Z,1.58
2023-01-11T05:46:48.437Z,2.55
2023-01-11T05:49:15.997Z,2.95
2023-01-11T05:51:43.767Z,2.35
2023-01-11T05:54:14.689Z,3.80
2023-01-11T05:56:45.522Z,2.85
2023-01-11T05:59:12.564Z,2.53
2023-01-11T06:01:40.054Z,2.90
2023-01-11T06:04:08.751Z,3.35
2023-01-11T06:06:35.992Z,3.45
2023-01-11T06:09:03.255Z,3.22
2023-01-11T06:11:30.289Z,2.47
2023-01-11T06:13:57.376Z,4.32
2023-01-11T06:16:24.609Z,1.67
2023-01-11T06:18:53.102Z,2.28
2023-01-11T06:21:21.191Z,2.22
2023-01-11T06:23:51.189Z,2.78
2023-01-11T06:26:20.817Z,1.80
2023-01-11T06:28:48.420Z,4.03
2023-01-11T06:31:17.612Z,2.85
2023-01-11T06:33:46.063Z,2.22
2023-01-11T06:36:14.497Z,2.10
2023-01-11T06:38:42.420Z,2.55
2023-01-11T06:41:10.288Z,2.33
2023-01-11T06:43:38.815Z,4.25
2023-01-11T06:46:06.167Z,9.45
2023-01-11T06:48:33.327Z,4.60
2023-01-11T06:51:00.382Z,9.60
2023-01-11T06:53:29.225Z,7.90
2023-01-11T06:55:58.497Z,5.72
2023-01-11T06:58:26.347Z,8.82
2023-01-11T07:00:55.578Z,8.35
2023-01-11T07:03:24.881Z,11.40
2023-01-11T07:05:59.441Z,10.32
2023-01-11T07:08:27.236Z,9.68
2023-01-11T07:10:55.113Z,11.82
2023-01-11T07:13:23.470Z,8.13
2023-01-11T07:15:52.044Z,8.68
2023-01-11T07:18:19.994Z,7.82
2023-01-11T07:20:47.302Z,5.90
2023-01-11T07:23:14.521Z,7.95
2023-01-11T07:25:41.683Z,8.27
2023-01-11T07:28:09.844Z,5.32
2023-01-11T07:30:55.984Z,4.82
2023-01-11T07:33:24.663Z,6.82
2023-01-11T07:35:52.577Z,9.52
2023-01-11T07:38:19.908Z,7.40
2023-01-11T07:40:47.170Z,3.95
2023-01-11T07:43:19.742Z,6.05
2023-01-11T07:45:49.940Z,5.82
2023-01-11T07:48:25.398Z,7.88
2023-01-11T07:50:53.576Z,6.18
2023-01-11T07:53:20.781Z,4.75
2023-01-11T07:55:47.981Z,4.55
2023-01-11T07:58:15.767Z,3.45
2023-01-11T08:00:43.428Z,5.93
2023-01-11T08:03:11.059Z,5.78
2023-01-11T08:05:38.378Z,9.00
2023-01-11T08:08:05.835Z,7.28
2023-01-11T08:10:33.868Z,6.82
2023-01-11T08:13:19.864Z,9.18
2023-01-11T08:15:47.420Z,6.40
2023-01-11T08:18:14.643Z,6.18
2023-01-11T08:20:41.813Z,6.63
2023-01-11T08:23:10.796Z,6.00
2023-01-11T08:25:38.403Z,9.27
2023-01-11T08:28:07.426Z,5.75
2023-01-11T08:30:35.255Z,6.63
2023-01-11T08:33:02.877Z,7.28
2023-01-11T08:35:30.911Z,8.68
2023-01-11T08:37:58.104Z,9.10
2023-01-11T08:40:25.913Z,5.47
2023-01-11T08:42:57.304Z,7.75
2023-01-11T08:45:24.870Z,6.60
2023-01-11T08:47:52.387Z,4.00
2023-01-11T08:50:21.376Z,6.97
2023-01-11T08:52:51.464Z,4.53
2023-01-11T08:55:19.883Z,7.15
2023-01-11T08:57:47.175Z,10.23
2023-01-11T09:00:14.951Z,10.90
2023-01-11T09:02:42.013Z,8.50
2023-01-11T09:05:09.631Z,19.42
2023-01-11T09:07:36.773Z,29.63
2023-01-11T09:10:04.626Z,40.92
2023-01-11T09:12:33.000Z,24.05
2023-01-11T09:15:00.473Z,26.58
2023-01-11T09:17:27.873Z,19.55
2023-01-11T09:19:54.927Z,18.90
2023-01-11T09:22:22.467Z,16.27
2023-01-11T09:24:49.669Z,14.90
2023-01-11T09:27:16.841Z,13.38
2023-01-11T09:29:44.111Z,11.43
2023-01-11T09:32:11.154Z,11.00
2023-01-11T09:34:39.450Z,16.08
2023-01-11T09:37:07.322Z,9.15
2023-01-11T09:39:35.437Z,4.70
2023-01-11T09:42:37.024Z,4.15
2023-01-11T09:45:14.690Z,3.15
2023-01-11T09:47:41.735Z,5.35
2023-01-11T09:50:23.853Z,3.92
2023-01-11T09:52:57.571Z,3.08
2023-01-11T09:55:35.188Z,5.05
2023-01-11T09:58:28.621Z,3.30
2023-01-11T10:01:20.469Z,2.70
2023-01-11T10:04:03.663Z,5.63
2023-01-11T10:06:36.413Z,6.07
2023-01-11T10:18:28.985Z,10.73
2023-01-11T10:19:30.868Z,21.35
2023-01-11T10:21:50.980Z,18.50
2023-01-11T10:24:25.530Z,11.93
2023-01-11T10:27:02.439Z,21.63
2023-01-11T10:29:52.143Z,12.82
2023-01-11T10:32:50.131Z,9.02
2023-01-11T10:35:30.288Z,5.75
2023-01-11T10:38:29.629Z,11.77
2023-01-11T10:41:16.054Z,5.97
2023-01-11T10:43:46.373Z,8.43
2023-01-11T10:46:19.911Z,7.32
2023-01-11T10:48:47.545Z,5.03
2023-01-11T10:51:25.664Z,3.92
2023-01-11T10:54:23.411Z,5.90
2023-01-11T10:57:59.406Z,5.35
2023-01-11T11:00:36.778Z,6.30
2023-01-11T11:03:20.991Z,5.28
2023-01-11T11:08:40.269Z,15.75
2023-01-11T11:11:19.351Z,7.53
2023-01-11T11:14:07.829Z,6.25
2023-01-11T11:16:50.442Z,13.30
2023-01-11T11:19:22.428Z,13.10
2023-01-11T11:21:52.560Z,8.68
2023-01-11T11:24:48.162Z,32.80
2023-01-11T11:27:38.524Z,40.15
2023-01-11T11:30:06.643Z,42.45
2023-01-11T11:32:37.129Z,29.27
2023-01-11T11:35:05.098Z,27.95
2023-01-11T11:37:39.042Z,29.52
2023-01-11T11:40:06.756Z,29.33
2023-01-11T11:42:33.801Z,41.40
2023-01-11T11:45:10.072Z,41.38
2023-01-11T11:47:40.264Z,38.20
2023-01-11T11:50:43.252Z,49.30
2023-01-11T11:53:39.486Z,27.00
2023-01-11T11:56:14.418Z,25.70
2023-01-11T11:58:42.748Z,20.92
2023-01-11T12:01:23.916Z,26.02
2023-01-11T12:03:53.867Z,14.50
2023-01-11T12:06:28.033Z,19.65
2023-01-11T12:08:56.332Z,23.92
2023-01-11T12:11:30.531Z,14.73
2023-01-11T12:14:04.846Z,11.13
2023-01-11T12:16:38.226Z,13.10
2023-01-11T12:19:48.418Z,12.75
2023-01-11T12:22:23.102Z,12.55
2023-01-11T12:25:08.667Z,29.08
2023-01-11T12:27:47.649Z,53.03
2023-01-11T12:30:20.598Z,34.17
2023-01-11T12:32:56.595Z,39.72
2023-01-11T12:35:35.874Z,38.40
2023-01-11T12:38:31.642Z,23.65
2023-01-11T12:41:09.890Z,30.52
2023-01-11T12:43:45.872Z,28.75
2023-01-11T12:46:41.516Z,21.10
2023-01-11T12:49:26.571Z,31.60
2023-01-11T12:52:27.778Z,42.60
2023-01-11T12:55:08.226Z,33.28
2023-01-11T12:58:01.612Z,24.95
2023-01-11T13:00:56.300Z,16.63
2023-01-11T13:03:49.443Z,30.67
2023-01-11T13:06:30.709Z,19.83
2023-01-11T13:09:08.410Z,16.83
2023-01-11T13:11:56.729Z,15.23
2023-01-11T13:15:08.139Z,19.45
2023-01-11T13:17:58.264Z,22.40
2023-01-11T13:20:48.678Z,11.20
2023-01-11T13:23:36.122Z,15.98
2023-01-11T13:26:43.051Z,25.98
2023-01-11T13:29:32.313Z,12.90
2023-01-11T13:32:04.124Z,19.58
2023-01-11T13:34:53.032Z,10.50
2023-01-11T13:37:30.255Z,6.28
2023-01-11T13:40:38.649Z,4.45
2023-01-11T13:43:14.123Z,5.88
2023-01-11T13:45:48.948Z,13.02
2023-01-11T13:48:30.221Z,14.13
2023-01-11T13:51:20.693Z,10.25
2023-01-11T13:54:01.957Z,6.35
2023-01-11T13:56:37.238Z,8.32
2023-01-11T13:59:25.005Z,6.13
2023-01-11T14:01:59.839Z,8.68
2023-01-11T14:04:42.061Z,34.05
2023-01-11T14:07:50.767Z,43.42
2023-01-11T14:10:24.147Z,31.15
2023-01-11T14:13:43.230Z,28.65
2023-01-11T14:16:51.389Z,24.95
2023-01-11T14:19:39.814Z,28.23
2023-01-11T14:22:35.062Z,31.15
2023-01-11T14:25:09.342Z,21.15
2023-01-11T14:27:36.527Z,12.80
2023-01-11T14:30:20.985Z,16.80
2023-01-11T14:33:16.335Z,12.05
2023-01-11T14:35:51.811Z,10.10
2023-01-11T14:38:28.328Z,13.45
2023-01-11T14:41:01.163Z,9.27
2023-01-11T14:43:46.467Z,11.53
2023-01-11T14:46:35.556Z,8.18
2023-01-11T14:49:03.267Z,7.65
2023-01-11T14:52:09.004Z,12.90
2023-01-11T14:54:44.914Z,11.82
2023-01-11T14:57:39.853Z,8.90
2023-01-11T15:00:19.854Z,8.60
2023-01-11T15:02:51.413Z,10.10
2023-01-11T15:05:36.091Z,8.50
2023-01-11T15:08:15.452Z,12.05
2023-01-11T15:11:05.746Z,9.80
2023-01-11T15:13:43.457Z,10.10
2023-01-11T15:16:40.028Z,10.70
2023-01-11T15:19:23.959Z,13.38
2023-01-11T15:21:53.655Z,6.97
2023-01-11T15:24:29.642Z,11.68
2023-01-11T15:26:58.657Z,5.15
2023-01-11T15:29:34.153Z,8.82
2023-01-11T15:32:24.747Z,10.20
2023-01-11T15:34:52.423Z,12.75
2023-01-11T15:37:39.955Z,12.40
2023-01-11T15:40:26.977Z,15.65
2023-01-11T15:43:18.724Z,13.88
2023-01-11T15:46:28.568Z,10.45
2023-01-11T15:49:07.703Z,12.27
2023-01-11T15:51:53.394Z,14.38
2023-01-11T15:54:51.199Z,12.57
2023-01-11T15:57:48.948Z,14.93
2023-01-11T16:00:44.194Z,18.13
2023-01-11T16:03:39.743Z,20.08
2023-01-11T16:06:24.875Z,10.57
2023-01-11T16:09:06.850Z,13.10
2023-01-11T16:11:52.638Z,10.70
2023-01-11T16:14:22.536Z,10.65
2023-01-11T16:16:55.916Z,11.20
2023-01-11T16:19:26.603Z,11.93
2023-01-11T16:22:02.086Z,14.65
2023-01-11T16:24:33.349Z,11.77
2023-01-11T16:27:03.349Z,17.42
2023-01-11T16:29:36.410Z,13.65
2023-01-11T16:32:18.527Z,15.60
2023-01-11T16:34:48.918Z,13.48
2023-01-11T16:37:24.794Z,12.98
2023-01-11T16:39:57.504Z,12.82
2023-01-11T16:42:27.157Z,9.48
2023-01-11T16:44:59.959Z,13.02
2023-01-11T16:47:26.986Z,11.23
2023-01-11T16:50:21.534Z,12.02
2023-01-11T16:53:00.257Z,15.60
2023-01-11T16:55:40.320Z,12.15
2023-01-11T16:58:17.780Z,15.30
2023-01-11T17:00:57.885Z,13.00
2023-01-11T17:03:27.366Z,22.27
2023-01-11T17:05:55.533Z,12.10
2023-01-11T17:08:27.120Z,13.73
2023-01-11T17:10:57.993Z,11.77
2023-01-11T17:14:06.825Z,15.95
2023-01-11T17:16:47.055Z,12.40
2023-01-11T17:19:20.297Z,17.02
2023-01-11T17:21:53.414Z,9.40
2023-01-11T17:24:25.261Z,18.48
2023-01-11T17:26:56.487Z,12.40
2023-01-11T17:29:40.698Z,13.82
2023-01-11T17:32:15.643Z,12.63
2023-01-11T17:34:43.326Z,19.45
2023-01-11T17:37:15.332Z,10.52
2023-01-11T17:39:52.463Z,15.10
2023-01-11T17:42:38.664Z,12.35
2023-01-11T17:45:23.979Z,14.70
2023-01-11T17:47:54.103Z,15.38
2023-01-11T17:50:46.333Z,14.43
2023-01-11T17:53:17.802Z,18.92
2023-01-11T17:55:55.009Z,15.35
2023-01-11T17:58:29.814Z,13.85
2023-01-11T18:01:08.856Z,14.88
2023-01-11T18:03:58.951Z,13.63
2023-01-11T18:06:34.841Z,11.07
2023-01-11T18:09:07.997Z,10.20
2023-01-11T18:11:41.793Z,15.55
2023-01-11T18:17:07.195Z,14.38
2023-01-11T18:19:45.598Z,11.27
2023-01-11T18:22:37.608Z,11.80
2023-01-11T18:25:17.006Z,12.20
2023-01-11T18:27:46.721Z,11.30
2023-01-11T18:30:32.233Z,10.65
2023-01-11T18:33:04.158Z,11.75
2023-01-11T18:35:31.490Z,6.38
2023-01-11T18:37:58.610Z,13.55
2023-01-11T18:40:25.743Z,9.88
2023-01-11T18:42:54.111Z,12.95
2023-01-11T18:45:22.149Z,15.20
2023-01-11T18:47:49.414Z,12.40
2023-01-11T18:50:19.471Z,12.27
2023-01-11T18:52:46.819Z,16.30
2023-01-11T18:55:14.892Z,13.55
2023-01-11T18:57:42.631Z,11.38
2023-01-11T19:00:14.835Z,12.95
2023-01-11T19:02:43.977Z,10.73
2023-01-11T19:05:13.982Z,6.05
2023-01-11T19:07:41.111Z,9.77
2023-01-11T19:10:09.792Z,11.27
2023-01-11T19:12:36.892Z,12.00
2023-01-11T19:15:04.282Z,10.30
2023-01-11T19:17:32.615Z,14.38
2023-01-11T19:19:59.628Z,19.98
2023-01-11T19:22:27.074Z,12.57
2023-01-11T19:24:55.042Z,15.82
2023-01-11T19:27:23.349Z,10.77
2023-01-11T19:29:50.545Z,8.38
2023-01-11T19:32:18.758Z,10.30
2023-01-11T19:34:45.877Z,8.13
2023-01-11T19:37:12.996Z,7.90
2023-01-11T19:39:40.478Z,11.00
2023-01-11T19:42:07.577Z,9.25
2023-01-11T19:44:39.303Z,8.95
2023-01-11T19:47:12.985Z,7.40
2023-01-11T19:49:41.353Z,7.35
2023-01-11T19:52:13.398Z,8.90
2023-01-11T19:54:44.232Z,8.73
2023-01-11T19:57:14.518Z,8.02
2023-01-11T19:59:42.343Z,5.10
2023-01-11T20:02:12.618Z,6.22
2023-01-11T20:04:40.599Z,6.55
2023-01-11T20:07:08.833Z,9.23
2023-01-11T20:09:39.698Z,5.68
2023-01-11T20:12:08.407Z,6.13
2023-01-11T20:14:36.612Z,8.27
2023-01-11T20:17:04.261Z,9.70
2023-01-11T20:19:31.344Z,8.90
2023-01-11T20:21:58.506Z,10.98
2023-01-11T20:24:28.794Z,10.30
2023-01-11T20:27:01.132Z,7.07
2023-01-11T20:29:29.318Z,9.85
2023-01-11T20:31:58.223Z,10.40
2023-01-11T20:34:30.148Z,7.40
2023-01-11T20:36:57.170Z,7.80
2023-01-11T20:39:25.693Z,7.30
2023-01-11T20:41:52.924Z,5.28
2023-01-11T20:44:28.327Z,5.15
2023-01-11T20:46:56.827Z,3.78
2023-01-11T20:49:26.232Z,4.57
2023-01-11T20:51:53.892Z,5.78
2023-01-11T20:54:21.579Z,7.18
2023-01-11T20:56:48.651Z,6.68
2023-01-11T20:59:19.926Z,7.10
2023-01-11T21:01:48.577Z,12.55
2023-01-11T21:04:17.601Z,10.57
2023-01-11T21:06:46.371Z,8.43
2023-01-11T21:09:15.563Z,8.25
2023-01-11T21:11:43.153Z,7.57
2023-01-11T21:14:12.348Z,8.25
2023-01-11T21:16:44.694Z,6.95
2023-01-11T21:19:13.593Z,9.65
2023-01-11T21:21:41.473Z,9.07
2023-01-11T21:24:14.830Z,8.48
2023-01-11T21:26:43.784Z,5.70
2023-01-11T21:29:11.977Z,3.53
2023-01-11T21:31:40.451Z,2.65
2023-01-11T21:34:08.367Z,4.72
2023-01-11T21:36:35.438Z,1.60
2023-01-11T21:39:03.819Z,3.33
2023-01-11T21:41:51.265Z,4.22
2023-01-11T21:44:20.588Z,5.78
2023-01-11T21:46:48.213Z,4.25
2023-01-11T21:49:16.441Z,5.60
2023-01-11T21:51:43.606Z,5.65
2023-01-11T21:54:13.115Z,3.92
2023-01-11T21:56:42.213Z,3.13
2023-01-11T21:59:09.882Z,4.00
2023-01-11T22:01:38.477Z,4.25
2023-01-11T22:04:10.162Z,5.50
2023-01-11T22:06:42.152Z,6.88
2023-01-11T22:09:11.291Z,5.78
2023-01-11T22:11:38.971Z,3.80
2023-01-11T22:14:08.028Z,4.82
2023-01-11T22:16:35.607Z,7.30
2023-01-11T22:19:06.444Z,7.15
2023-01-11T22:21:34.055Z,6.07
2023-01-11T22:24:01.223Z,3.28
2023-01-11T22:26:33.841Z,4.95
2023-01-11T22:29:15.586Z,8.38
2023-01-11T22:31:47.596Z,8.13
2023-01-11T22:34:15.728Z,10.52
2023-01-11T22:36:43.954Z,6.00
2023-01-11T22:39:12.723Z,14.55
2023-01-11T22:41:40.862Z,10.35
2023-01-11T22:44:09.775Z,11.02
2023-01-11T22:46:37.706Z,9.70
2023-01-11T22:49:06.370Z,8.73
2023-01-11T22:51:33.929Z,12.65
2023-01-11T22:54:01.135Z,6.97
2023-01-11T22:56:29.579Z,8.70
2023-01-11T22:58:57.943Z,4.82
2023-01-11T23:01:47.991Z,8.35
2023-01-11T23:04:15.203Z,4.72
2023-01-11T23:06:43.383Z,7.28
2023-01-11T23:09:15.974Z,8.88
2023-01-11T23:12:03.399Z,6.53
2023-01-11T23:14:33.298Z,4.80
2023-01-11T23:17:06.013Z,9.43
2023-01-11T23:19:34.658Z,10.70
2023-01-11T23:22:02.106Z,4.88
2023-01-11T23:24:29.311Z,4.65
2023-01-11T23:26:56.623Z,4.18
2023-01-11T23:29:23.976Z,3.63
2023-01-11T23:31:51.248Z,5.05
2023-01-11T23:34:18.402Z,6.18
2023-01-11T23:36:45.952Z,3.65
2023-01-11T23:39:15.474Z,4.18
2023-01-11T23:42:01.993Z,5.43
2023-01-11T23:44:29.256Z,4.45
2023-01-11T23:47:14.970Z,7.35
2023-01-11T23:49:43.874Z,3.85
2023-01-11T23:52:11.251Z,6.72
2023-01-11T23:54:38.624Z,3.65
2023-01-11T23:57:05.896Z,4.65
2023-01-11T23:59:33.250Z,5.25
